Time;durP1;ratioP1;P1;durP2;ratioP2;P2;SDS_P1;SDS_P2;PMS_P1;PMS_P2;Temp;Humidity;BMP_temperature;BMP_pressure;BME280_temperature;BME280_humidity;BME280_pressure;Samples;Min_cycle;Max_cycle;Signal;HPM_P1;HPM_P2
2021/09/25 00:01:50;;;;;;;5.05;2.58;;;;;;;;;;4943190;29;20382;-79
2021/09/25 00:04:16;;;;;;;9.35;2.80;;;;;;;;;;4935628;29;20519;-79
2021/09/25 00:06:42;;;;;;;4.85;2.35;;;;;;;;;;4931863;29;20547;-78
2021/09/25 00:09:08;;;;;;;6.57;2.78;;;;;;;;;;4931829;29;20040;-78
2021/09/25 00:11:34;;;;;;;8.85;2.72;;;;;;;;;;4930601;29;20048;-79
2021/09/25 00:14:00;;;;;;;7.32;2.50;;;;;;;;;;4937683;29;20152;-78
2021/09/25 00:16:26;;;;;;;4.85;2.65;;;;;;;;;;4942767;29;20037;-78
2021/09/25 00:18:56;;;;;;;6.18;2.90;;;;;;;;;;4931620;28;20471;-79
2021/09/25 00:21:22;;;;;;;4.53;2.63;;;;;;;;;;4932155;29;20080;-78
2021/09/25 00:23:48;;;;;;;6.70;2.83;;;;;;;;;;4938395;29;20906;-79
2021/09/25 00:26:15;;;;;;;5.90;3.08;;;;;;;;;;4951514;29;20114;-79
2021/09/25 00:28:41;;;;;;;6.07;2.70;;;;;;;;;;4950556;29;20027;-78
2021/09/25 00:31:07;;;;;;;7.03;2.58;;;;;;;;;;4951377;29;20035;-79
2021/09/25 00:33:33;;;;;;;5.82;2.47;;;;;;;;;;4950729;29;20078;-78
2021/09/25 00:35:59;;;;;;;7.70;2.40;;;;;;;;;;4951473;29;20075;-79
2021/09/25 00:38:25;;;;;;;5.05;2.65;;;;;;;;;;4951065;29;20114;-78
2021/09/25 00:40:51;;;;;;;6.03;2.50;;;;;;;;;;4931429;29;20127;-78
2021/09/25 00:43:17;;;;;;;7.05;3.33;;;;;;;;;;4931732;29;20107;-79
2021/09/25 00:45:43;;;;;;;5.93;3.08;;;;;;;;;;4931335;29;20035;-78
2021/09/25 00:48:10;;;;;;;5.88;2.72;;;;;;;;;;4931693;29;20117;-78
2021/09/25 00:50:36;;;;;;;5.63;2.50;;;;;;;;;;4945253;29;20114;-79
2021/09/25 00:53:02;;;;;;;7.63;2.83;;;;;;;;;;4945842;29;20043;-78
2021/09/25 00:55:29;;;;;;;10.68;2.58;;;;;;;;;;4931709;29;20423;-79
2021/09/25 00:57:59;;;;;;;7.63;2.38;;;;;;;;;;4931987;29;20075;-79
2021/09/25 01:00:25;;;;;;;5.30;2.17;;;;;;;;;;4931120;29;20743;-78
2021/09/25 01:02:51;;;;;;;9.63;2.42;;;;;;;;;;4931871;29;20043;-78
2021/09/25 01:05:20;;;;;;;7.55;2.40;;;;;;;;;;4939443;29;20103;-78
2021/09/25 01:07:46;;;;;;;6.25;2.15;;;;;;;;;;4931924;29;20027;-78
2021/09/25 01:10:12;;;;;;;8.65;2.92;;;;;;;;;;4935623;28;20148;-79
2021/09/25 01:12:38;;;;;;;7.95;3.30;;;;;;;;;;4952010;28;20046;-78
2021/09/25 01:15:05;;;;;;;4.45;2.92;;;;;;;;;;4946703;29;20035;-78
2021/09/25 01:17:31;;;;;;;5.13;2.63;;;;;;;;;;4949399;28;20042;-78
2021/09/25 01:19:57;;;;;;;6.82;2.75;;;;;;;;;;4934444;29;20115;-79
2021/09/25 01:22:23;;;;;;;10.40;2.58;;;;;;;;;;4934703;29;20391;-79
2021/09/25 01:24:50;;;;;;;9.32;3.10;;;;;;;;;;4948795;29;20044;-78
2021/09/25 01:27:16;;;;;;;9.82;2.65;;;;;;;;;;4934767;29;20662;-78
2021/09/25 01:29:42;;;;;;;5.35;2.22;;;;;;;;;;4948757;29;20053;-78
2021/09/25 01:32:08;;;;;;;7.53;2.72;;;;;;;;;;4953896;29;20035;-78
2021/09/25 01:34:35;;;;;;;11.90;2.72;;;;;;;;;;4953133;29;20050;-78
2021/09/25 01:37:01;;;;;;;7.22;2.90;;;;;;;;;;4953839;29;20135;-78
2021/09/25 01:39:28;;;;;;;6.65;2.78;;;;;;;;;;4943628;29;20122;-78
2021/09/25 01:41:54;;;;;;;6.40;2.40;;;;;;;;;;4949576;29;20046;-79
2021/09/25 01:44:22;;;;;;;10.20;2.35;;;;;;;;;;4953153;29;20038;-78
2021/09/25 01:46:48;;;;;;;4.35;2.50;;;;;;;;;;4940365;29;20032;-79
2021/09/25 01:49:14;;;;;;;8.15;2.45;;;;;;;;;;4934679;29;20030;-79
2021/09/25 01:51:40;;;;;;;8.40;3.05;;;;;;;;;;4943582;29;20039;-78
2021/09/25 01:54:06;;;;;;;5.68;2.40;;;;;;;;;;4939741;29;20670;-79
2021/09/25 01:56:32;;;;;;;6.43;2.80;;;;;;;;;;4941986;29;20039;-79
2021/09/25 01:58:58;;;;;;;5.80;2.95;;;;;;;;;;4953499;29;20098;-78
2021/09/25 02:01:24;;;;;;;4.55;2.40;;;;;;;;;;4947878;28;20039;-79
2021/09/25 02:03:50;;;;;;;5.05;2.80;;;;;;;;;;4933024;29;20122;-79
2021/09/25 02:06:16;;;;;;;6.38;2.58;;;;;;;;;;4936707;29;20147;-78
2021/09/25 02:08:45;;;;;;;4.68;2.60;;;;;;;;;;4953303;29;20042;-79
2021/09/25 02:11:11;;;;;;;5.32;2.60;;;;;;;;;;4945247;29;20052;-79
2021/09/25 02:13:37;;;;;;;8.70;2.95;;;;;;;;;;4933898;29;20491;-79
2021/09/25 02:16:03;;;;;;;7.90;2.83;;;;;;;;;;4933994;29;20039;-78
2021/09/25 02:18:29;;;;;;;6.40;2.78;;;;;;;;;;4919399;29;20047;-78
2021/09/25 02:20:55;;;;;;;7.53;2.47;;;;;;;;;;4914511;29;20408;-78
2021/09/25 02:23:21;;;;;;;6.00;2.28;;;;;;;;;;4914120;29;20104;-78
2021/09/25 02:25:47;;;;;;;10.25;2.40;;;;;;;;;;4913697;29;20036;-79
2021/09/25 02:28:13;;;;;;;6.57;2.67;;;;;;;;;;4914284;29;20040;-78
2021/09/25 02:30:39;;;;;;;7.50;3.03;;;;;;;;;;4915204;29;20080;-79
2021/09/25 02:33:06;;;;;;;6.18;2.80;;;;;;;;;;4914485;29;20047;-79
2021/09/25 02:35:32;;;;;;;6.82;2.63;;;;;;;;;;4914841;29;20040;-78
2021/09/25 02:37:58;;;;;;;5.15;2.28;;;;;;;;;;4916222;29;20046;-78
2021/09/25 02:40:24;;;;;;;5.97;2.55;;;;;;;;;;4933956;29;20110;-79
2021/09/25 02:42:50;;;;;;;6.18;2.53;;;;;;;;;;4932067;29;20634;-78
2021/09/25 02:45:16;;;;;;;5.10;2.47;;;;;;;;;;4914798;29;20032;-78
2021/09/25 02:47:43;;;;;;;7.45;2.30;;;;;;;;;;4914672;29;20032;-79
2021/09/25 02:50:11;;;;;;;6.32;2.40;;;;;;;;;;4914243;29;20107;-79
2021/09/25 02:52:37;;;;;;;8.68;2.88;;;;;;;;;;4914474;29;20028;-78
2021/09/25 02:55:03;;;;;;;5.50;2.53;;;;;;;;;;4929695;29;20110;-78
2021/09/25 02:57:29;;;;;;;8.52;3.20;;;;;;;;;;4933405;29;20476;-79
2021/09/25 02:59:55;;;;;;;5.60;2.35;;;;;;;;;;4932499;29;20039;-79
2021/09/25 03:02:21;;;;;;;7.75;2.72;;;;;;;;;;4915874;29;20530;-78
2021/09/25 03:04:47;;;;;;;7.93;2.33;;;;;;;;;;4921926;29;20079;-78
2021/09/25 03:07:13;;;;;;;4.95;2.25;;;;;;;;;;4914181;29;20037;-79
2021/09/25 03:09:40;;;;;;;5.30;2.38;;;;;;;;;;4913666;29;20036;-79
2021/09/25 03:12:06;;;;;;;7.38;3.35;;;;;;;;;;4928032;29;20134;-79
2021/09/25 03:14:32;;;;;;;5.03;2.40;;;;;;;;;;4937972;29;20071;-79
2021/09/25 03:16:58;;;;;;;9.20;2.83;;;;;;;;;;4951949;29;20039;-78
2021/09/25 03:19:24;;;;;;;7.60;2.60;;;;;;;;;;4951369;29;20047;-78
2021/09/25 03:21:50;;;;;;;9.07;2.80;;;;;;;;;;4952257;29;20062;-79
2021/09/25 03:24:16;;;;;;;6.07;2.42;;;;;;;;;;4950870;29;20078;-78
2021/09/25 03:26:42;;;;;;;7.57;3.03;;;;;;;;;;4933194;29;20476;-79
2021/09/25 03:29:10;;;;;;;9.63;3.08;;;;;;;;;;4932695;29;20027;-78
2021/09/25 03:31:36;;;;;;;9.43;2.92;;;;;;;;;;4950667;29;20386;-79
2021/09/25 03:34:02;;;;;;;7.07;2.85;;;;;;;;;;4951861;29;20386;-78
2021/09/25 03:36:28;;;;;;;4.10;2.22;;;;;;;;;;4935615;29;20055;-79
2021/09/25 03:38:54;;;;;;;3.53;2.25;;;;;;;;;;4932577;29;20032;-78
2021/09/25 03:41:20;;;;;;;5.88;2.90;;;;;;;;;;4957480;28;20130;-78
2021/09/25 03:43:50;;;;;;;6.53;2.67;;;;;;;;;;4970869;28;20031;-79
2021/09/25 03:46:17;;;;;;;11.27;2.90;;;;;;;;;;4948937;28;20111;-78
2021/09/25 03:48:43;;;;;;;10.15;2.63;;;;;;;;;;4932643;29;20035;-79
2021/09/25 03:51:09;;;;;;;7.70;2.38;;;;;;;;;;4937991;29;20039;-78
2021/09/25 03:53:35;;;;;;;6.10;2.30;;;;;;;;;;4951388;29;20035;-78
2021/09/25 03:56:07;;;;;;;6.10;2.85;;;;;;;;;;4951112;29;20039;-78
2021/09/25 03:58:33;;;;;;;7.10;2.67;;;;;;;;;;4933996;29;20042;-79
2021/09/25 04:00:59;;;;;;;4.50;2.47;;;;;;;;;;4950336;29;20414;-78
2021/09/25 04:03:25;;;;;;;6.53;2.55;;;;;;;;;;4950892;29;20034;-78
2021/09/25 04:05:51;;;;;;;5.97;2.70;;;;;;;;;;4952678;28;20050;-78
2021/09/25 04:08:17;;;;;;;9.48;2.58;;;;;;;;;;4970260;28;20102;-78
2021/09/25 04:10:43;;;;;;;5.65;2.65;;;;;;;;;;4970633;28;20494;-78
2021/09/25 04:13:11;;;;;;;7.47;3.00;;;;;;;;;;4951506;28;20054;-78
2021/09/25 04:15:37;;;;;;;5.15;2.15;;;;;;;;;;4951401;29;20050;-78
2021/09/25 04:18:04;;;;;;;10.27;2.72;;;;;;;;;;4950520;29;20078;-78
2021/09/25 04:20:30;;;;;;;7.90;2.83;;;;;;;;;;4951224;29;20078;-79
2021/09/25 04:22:56;;;;;;;7.93;3.88;;;;;;;;;;4950140;29;20040;-78
2021/09/25 04:25:26;;;;;;;4.95;2.40;;;;;;;;;;4951136;29;20044;-78
2021/09/25 04:27:52;;;;;;;10.57;3.58;;;;;;;;;;4950253;29;20142;-79
2021/09/25 04:30:18;;;;;;;11.10;3.42;;;;;;;;;;4951562;29;20035;-78
2021/09/25 04:32:44;;;;;;;6.47;2.55;;;;;;;;;;4950339;29;20023;-78
2021/09/25 04:35:11;;;;;;;8.73;3.70;;;;;;;;;;4950761;29;20487;-78
2021/09/25 04:37:37;;;;;;;10.88;3.70;;;;;;;;;;4943676;29;20042;-79
2021/09/25 04:40:03;;;;;;;9.48;3.80;;;;;;;;;;4937187;29;20719;-78
2021/09/25 04:42:29;;;;;;;9.75;3.00;;;;;;;;;;4949590;29;20034;-78
2021/09/25 04:44:55;;;;;;;7.70;3.10;;;;;;;;;;4950886;29;20047;-78
2021/09/25 04:47:22;;;;;;;5.10;2.67;;;;;;;;;;4948396;29;20035;-79
2021/09/25 04:49:47;;;;;;;7.47;3.20;;;;;;;;;;4931333;29;20624;-78
2021/09/25 04:52:13;;;;;;;7.90;2.65;;;;;;;;;;4931574;29;20039;-78
2021/09/25 04:54:40;;;;;;;5.55;2.53;;;;;;;;;;4951407;28;20054;-78
2021/09/25 04:57:06;;;;;;;5.05;2.28;;;;;;;;;;4965302;28;20499;-79
2021/09/25 04:59:32;;;;;;;13.00;2.70;;;;;;;;;;4954662;29;20383;-78
2021/09/25 05:01:58;;;;;;;8.02;2.55;;;;;;;;;;4940309;29;20036;-78
2021/09/25 05:04:24;;;;;;;6.65;3.00;;;;;;;;;;4934488;29;20078;-79
2021/09/25 05:06:50;;;;;;;5.28;2.75;;;;;;;;;;4938533;29;20023;-78
2021/09/25 05:09:18;;;;;;;6.57;2.75;;;;;;;;;;4955472;28;20043;-78
2021/09/25 05:11:44;;;;;;;7.88;3.40;;;;;;;;;;4955890;28;20035;-78
2021/09/25 05:14:10;;;;;;;5.85;2.75;;;;;;;;;;4934684;29;20047;-78
2021/09/25 05:16:36;;;;;;;6.72;2.80;;;;;;;;;;4941890;29;20755;-78
2021/09/25 05:19:02;;;;;;;8.98;3.30;;;;;;;;;;4946129;29;20039;-78
2021/09/25 05:21:28;;;;;;;7.45;2.50;;;;;;;;;;4937826;28;20776;-78
2021/09/25 05:23:54;;;;;;;7.32;2.90;;;;;;;;;;4953994;29;20058;-78
2021/09/25 05:26:20;;;;;;;6.07;3.17;;;;;;;;;;4953972;29;20110;-79
2021/09/25 05:28:46;;;;;;;8.82;3.15;;;;;;;;;;4942902;29;20028;-78
2021/09/25 05:31:13;;;;;;;7.68;3.80;;;;;;;;;;4942511;29;20430;-78
2021/09/25 05:33:39;;;;;;;12.10;3.63;;;;;;;;;;4942427;29;20042;-78
2021/09/25 05:36:06;;;;;;;6.88;3.67;;;;;;;;;;4943630;28;20078;-78
2021/09/25 05:38:32;;;;;;;13.68;3.95;;;;;;;;;;4953543;29;20117;-78
2021/09/25 05:40:58;;;;;;;7.57;3.42;;;;;;;;;;4953423;29;20042;-78
2021/09/25 05:43:24;;;;;;;8.32;4.70;;;;;;;;;;4949514;29;20045;-79
2021/09/25 05:45:50;;;;;;;7.63;4.93;;;;;;;;;;4949703;29;20111;-78
2021/09/25 05:48:16;;;;;;;15.27;4.57;;;;;;;;;;4934062;29;20047;-78
2021/09/25 05:50:42;;;;;;;8.55;2.95;;;;;;;;;;4934456;29;20368;-78
2021/09/25 05:53:08;;;;;;;5.25;2.55;;;;;;;;;;4941240;29;20035;-78
2021/09/25 05:55:34;;;;;;;10.88;2.53;;;;;;;;;;4950107;29;20155;-78
2021/09/25 05:58:02;;;;;;;8.73;3.25;;;;;;;;;;4946679;29;20107;-78
2021/09/25 06:00:28;;;;;;;10.32;3.17;;;;;;;;;;4948877;28;20031;-78
2021/09/25 06:02:57;;;;;;;8.98;3.45;;;;;;;;;;4952113;29;20035;-78
2021/09/25 06:05:23;;;;;;;9.55;3.58;;;;;;;;;;4952878;28;20065;-78
2021/09/25 06:07:49;;;;;;;10.23;3.75;;;;;;;;;;4940498;29;20062;-79
2021/09/25 06:10:15;;;;;;;7.03;3.45;;;;;;;;;;4953546;29;20035;-79
2021/09/25 06:12:41;;;;;;;8.10;3.65;;;;;;;;;;4952179;29;20043;-78
2021/09/25 06:15:07;;;;;;;6.90;2.88;;;;;;;;;;4942876;28;20035;-78
2021/09/25 06:17:33;;;;;;;7.25;2.35;;;;;;;;;;4948859;28;20038;-78
2021/09/25 06:20:00;;;;;;;7.72;3.13;;;;;;;;;;4951348;28;20039;-79
2021/09/25 06:22:26;;;;;;;8.85;3.13;;;;;;;;;;4951437;28;20794;-79
2021/09/25 06:24:52;;;;;;;7.20;3.08;;;;;;;;;;4942337;29;20043;-79
2021/09/25 06:27:18;;;;;;;11.05;3.60;;;;;;;;;;4944273;29;20027;-79
2021/09/25 06:29:44;;;;;;;11.13;3.10;;;;;;;;;;4947369;29;20161;-79
2021/09/25 06:32:10;;;;;;;9.93;3.53;;;;;;;;;;4932437;29;20023;-79
2021/09/25 06:34:36;;;;;;;8.25;3.30;;;;;;;;;;4952227;28;20039;-78
2021/09/25 06:37:03;;;;;;;8.23;2.95;;;;;;;;;;4965473;28;20042;-78
2021/09/25 06:39:29;;;;;;;6.60;3.08;;;;;;;;;;4938652;29;20044;-78
2021/09/25 06:41:55;;;;;;;8.13;3.63;;;;;;;;;;4947077;29;20039;-78
2021/09/25 06:44:21;;;;;;;8.73;3.78;;;;;;;;;;4947996;28;20087;-78
2021/09/25 06:46:47;;;;;;;9.43;3.38;;;;;;;;;;4952705;28;20035;-79
2021/09/25 06:49:13;;;;;;;11.32;3.72;;;;;;;;;;4960818;28;20173;-79
2021/09/25 06:51:39;;;;;;;9.93;2.75;;;;;;;;;;4963235;28;20051;-79
2021/09/25 06:54:05;;;;;;;6.22;3.00;;;;;;;;;;4949011;28;20110;-79
2021/09/25 06:56:31;;;;;;;11.60;3.40;;;;;;;;;;4943224;29;20035;-78
2021/09/25 06:58:57;;;;;;;9.40;3.35;;;;;;;;;;4953503;28;20027;-79
2021/09/25 07:01:23;;;;;;;9.93;2.92;;;;;;;;;;4935188;28;20043;-78
2021/09/25 07:03:49;;;;;;;7.80;2.50;;;;;;;;;;4945159;28;20986;-79
2021/09/25 07:06:15;;;;;;;9.30;2.78;;;;;;;;;;4943260;28;20150;-78
2021/09/25 07:08:41;;;;;;;9.70;2.70;;;;;;;;;;4942307;28;20071;-77
2021/09/25 07:11:07;;;;;;;10.02;2.47;;;;;;;;;;4947868;28;20410;-79
2021/09/25 07:13:33;;;;;;;7.55;2.80;;;;;;;;;;4926295;29;20141;-78
2021/09/25 07:15:59;;;;;;;7.80;2.85;;;;;;;;;;4946525;28;20489;-78
2021/09/25 07:18:25;;;;;;;11.07;2.67;;;;;;;;;;4940488;28;20104;-77
2021/09/25 07:20:51;;;;;;;8.93;2.60;;;;;;;;;;4950493;28;20118;-77
2021/09/25 07:23:17;;;;;;;7.47;2.55;;;;;;;;;;4954071;28;20434;-78
2021/09/25 07:25:43;;;;;;;8.75;2.83;;;;;;;;;;4941726;28;20087;-78
2021/09/25 07:28:09;;;;;;;8.98;2.50;;;;;;;;;;4949928;28;20039;-78
2021/09/25 07:30:37;;;;;;;6.22;2.80;;;;;;;;;;4950200;28;20066;-78
2021/09/25 07:33:04;;;;;;;7.60;2.63;;;;;;;;;;4949985;28;20034;-78
2021/09/25 07:35:30;;;;;;;7.07;2.30;;;;;;;;;;4949955;28;20042;-78
2021/09/25 07:37:56;;;;;;;6.63;2.75;;;;;;;;;;4942888;28;20031;-77
2021/09/25 07:40:22;;;;;;;11.75;2.70;;;;;;;;;;4945351;28;20051;-77
2021/09/25 07:42:48;;;;;;;9.82;2.50;;;;;;;;;;4950492;28;20694;-77
2021/09/25 07:45:14;;;;;;;6.57;2.70;;;;;;;;;;4945151;28;20035;-77
2021/09/25 07:47:40;;;;;;;7.20;2.92;;;;;;;;;;4942994;28;20046;-78
2021/09/25 07:50:07;;;;;;;11.63;2.42;;;;;;;;;;4945658;28;20031;-78
2021/09/25 07:52:35;;;;;;;8.82;2.30;;;;;;;;;;4949806;28;20143;-78
2021/09/25 07:55:01;;;;;;;13.63;2.58;;;;;;;;;;4950673;28;20041;-78
2021/09/25 07:57:27;;;;;;;8.02;2.65;;;;;;;;;;4942890;28;20031;-78
2021/09/25 07:59:53;;;;;;;8.65;2.50;;;;;;;;;;4936341;28;20027;-78
2021/09/25 08:02:19;;;;;;;7.97;2.67;;;;;;;;;;4943361;28;20035;-78
2021/09/25 08:04:45;;;;;;;6.40;1.98;;;;;;;;;;4949611;29;20039;-78
2021/09/25 08:07:11;;;;;;;8.82;2.45;;;;;;;;;;4939355;29;20538;-78
2021/09/25 08:09:37;;;;;;;6.40;2.47;;;;;;;;;;4951696;29;20112;-78
2021/09/25 08:12:03;;;;;;;8.95;2.22;;;;;;;;;;4948695;28;20375;-78
2021/09/25 08:14:29;;;;;;;8.13;2.53;;;;;;;;;;4937286;28;20039;-78
2021/09/25 08:16:55;;;;;;;5.57;1.95;;;;;;;;;;4945489;29;20039;-78
2021/09/25 08:19:21;;;;;;;7.10;1.90;;;;;;;;;;4950056;28;20047;-78
2021/09/25 08:21:47;;;;;;;7.28;2.15;;;;;;;;;;4950968;29;20846;-78
2021/09/25 08:24:13;;;;;;;11.32;2.20;;;;;;;;;;4949947;29;20167;-78
2021/09/25 08:26:39;;;;;;;6.72;2.20;;;;;;;;;;4968360;28;20031;-78
2021/09/25 08:29:06;;;;;;;7.72;2.33;;;;;;;;;;4953884;28;20028;-78
2021/09/25 08:31:32;;;;;;;8.10;2.08;;;;;;;;;;4951466;28;20031;-78
2021/09/25 08:33:58;;;;;;;8.82;2.25;;;;;;;;;;4959038;28;20034;-78
2021/09/25 08:36:24;;;;;;;8.10;1.88;;;;;;;;;;4954899;29;20039;-78
2021/09/25 08:38:50;;;;;;;11.63;2.15;;;;;;;;;;4949092;28;20799;-78
2021/09/25 08:41:16;;;;;;;11.20;2.42;;;;;;;;;;4956389;28;20047;-78
2021/09/25 08:43:43;;;;;;;11.15;2.17;;;;;;;;;;4954506;29;20810;-78
2021/09/25 08:46:09;;;;;;;10.00;2.17;;;;;;;;;;4949000;28;20066;-78
2021/09/25 08:48:37;;;;;;;6.32;2.33;;;;;;;;;;4954593;28;20057;-78
2021/09/25 08:51:03;;;;;;;5.00;1.88;;;;;;;;;;4952281;28;20478;-78
2021/09/25 08:53:29;;;;;;;9.43;2.42;;;;;;;;;;4954313;28;20038;-79
2021/09/25 08:55:55;;;;;;;6.78;1.92;;;;;;;;;;4946865;28;20075;-78
2021/09/25 08:58:22;;;;;;;14.50;2.60;;;;;;;;;;4954651;29;20482;-78
2021/09/25 09:00:48;;;;;;;10.85;2.05;;;;;;;;;;4954069;28;20043;-78
2021/09/25 09:03:19;;;;;;;10.55;2.15;;;;;;;;;;4953683;28;20035;-78
2021/09/25 09:05:45;;;;;;;7.95;2.15;;;;;;;;;;4946555;28;20040;-78
2021/09/25 09:08:12;;;;;;;7.45;2.13;;;;;;;;;;4953910;28;20629;-78
2021/09/25 09:10:38;;;;;;;10.23;2.35;;;;;;;;;;4954239;29;20059;-78
2021/09/25 09:13:05;;;;;;;12.30;2.35;;;;;;;;;;4945763;29;20036;-78
2021/09/25 09:15:36;;;;;;;10.13;2.20;;;;;;;;;;4953022;29;20035;-78
2021/09/25 09:18:03;;;;;;;8.38;1.75;;;;;;;;;;4936686;28;20405;-79
2021/09/25 09:20:30;;;;;;;6.25;1.60;;;;;;;;;;4956596;28;20090;-77
2021/09/25 09:23:15;;;;;;;5.45;1.90;;;;;;;;;;4953314;28;20027;-78
2021/09/25 09:25:41;;;;;;;6.85;1.90;;;;;;;;;;4950724;28;20039;-78
2021/09/25 09:28:20;;;;;;;8.95;2.38;;;;;;;;;;4944299;28;20478;-77
2021/09/25 09:30:47;;;;;;;9.23;2.38;;;;;;;;;;4941868;29;20386;-77
2021/09/25 09:33:27;;;;;;;9.80;2.30;;;;;;;;;;4945203;28;20500;-77
2021/09/25 09:35:53;;;;;;;10.32;2.38;;;;;;;;;;4947192;28;20713;-76
2021/09/25 09:38:23;;;;;;;7.80;2.22;;;;;;;;;;4943315;28;20107;-77
2021/09/25 09:40:56;;;;;;;7.72;2.10;;;;;;;;;;4941575;29;20471;-77
2021/09/25 09:43:22;;;;;;;6.07;2.22;;;;;;;;;;4944693;28;20031;-76
2021/09/25 09:45:48;;;;;;;10.52;2.55;;;;;;;;;;4948106;28;20103;-77
2021/09/25 09:48:16;;;;;;;5.43;2.15;;;;;;;;;;4949152;28;20038;-77
2021/09/25 09:50:42;;;;;;;9.73;2.78;;;;;;;;;;4948375;29;20046;-77
2021/09/25 09:53:12;;;;;;;6.40;2.70;;;;;;;;;;4954853;28;20061;-78
2021/09/25 09:55:38;;;;;;;9.48;2.45;;;;;;;;;;4950048;28;20032;-78
2021/09/25 09:58:07;;;;;;;9.63;2.10;;;;;;;;;;4958126;28;20024;-78
2021/09/25 10:00:37;;;;;;;6.85;1.90;;;;;;;;;;4945642;29;20070;-77
2021/09/25 10:03:06;;;;;;;7.88;2.45;;;;;;;;;;4960017;28;20026;-77
2021/09/25 10:05:32;;;;;;;9.52;1.98;;;;;;;;;;4955920;28;20447;-78
2021/09/25 10:07:58;;;;;;;4.72;2.08;;;;;;;;;;4959251;28;20023;-78
2021/09/25 10:10:26;;;;;;;5.43;2.00;;;;;;;;;;4950397;28;20048;-78
2021/09/25 10:12:53;;;;;;;4.78;1.73;;;;;;;;;;4940356;28;20079;-77
2021/09/25 10:15:19;;;;;;;7.38;1.92;;;;;;;;;;4951297;28;20114;-77
2021/09/25 10:17:45;;;;;;;7.38;1.98;;;;;;;;;;4945292;28;20043;-78
2021/09/25 10:20:12;;;;;;;9.10;2.08;;;;;;;;;;4948327;28;20035;-78
2021/09/25 10:22:39;;;;;;;7.55;2.25;;;;;;;;;;4944936;29;20031;-78
2021/09/25 10:25:07;;;;;;;7.93;2.40;;;;;;;;;;4941406;28;20047;-78
2021/09/25 10:27:35;;;;;;;5.50;1.98;;;;;;;;;;4940449;29;20028;-78
2021/09/25 10:30:04;;;;;;;8.93;2.20;;;;;;;;;;4943765;29;20095;-77
2021/09/25 10:32:31;;;;;;;6.45;2.22;;;;;;;;;;4947255;29;20028;-78
2021/09/25 10:35:03;;;;;;;7.50;2.03;;;;;;;;;;4941875;28;20047;-78
2021/09/25 10:37:35;;;;;;;6.13;1.70;;;;;;;;;;4947937;29;20035;-78
2021/09/25 10:40:01;;;;;;;9.15;1.77;;;;;;;;;;4943185;28;20888;-78
2021/09/25 10:42:41;;;;;;;6.18;2.03;;;;;;;;;;4949360;29;20039;-78
2021/09/25 10:45:12;;;;;;;5.80;2.25;;;;;;;;;;4938250;28;20557;-78
2021/09/25 10:47:39;;;;;;;8.20;2.00;;;;;;;;;;4938800;28;20496;-77
2021/09/25 10:50:12;;;;;;;6.10;1.80;;;;;;;;;;4945301;28;20118;-77
2021/09/25 10:52:43;;;;;;;6.72;1.90;;;;;;;;;;4942255;28;20028;-77
2021/09/25 10:55:26;;;;;;;6.17;2.13;;;;;;;;;;4946382;28;20043;-77
2021/09/25 10:58:11;;;;;;;8.45;1.92;;;;;;;;;;4945499;28;20523;-77
2021/09/25 11:00:49;;;;;;;7.78;2.33;;;;;;;;;;4946163;28;20115;-77
2021/09/25 11:03:34;;;;;;;7.45;2.13;;;;;;;;;;4940138;28;20391;-79
2021/09/25 11:06:04;;;;;;;7.50;1.80;;;;;;;;;;4941312;28;20039;-78
2021/09/25 11:08:32;;;;;;;8.60;2.17;;;;;;;;;;4944258;28;20380;-78
2021/09/25 11:11:08;;;;;;;10.15;1.92;;;;;;;;;;4941988;28;20039;-77
2021/09/25 11:13:53;;;;;;;6.85;1.90;;;;;;;;;;4944150;28;20023;-77
2021/09/25 11:16:39;;;;;;;6.90;2.05;;;;;;;;;;4941811;29;20159;-77
2021/09/25 11:19:08;;;;;;;8.80;2.22;;;;;;;;;;4934775;29;20592;-77
2021/09/25 11:21:34;;;;;;;9.90;2.38;;;;;;;;;;4951499;29;20102;-76
2021/09/25 11:24:00;;;;;;;9.48;1.70;;;;;;;;;;4948884;28;20035;-77
2021/09/25 11:26:26;;;;;;;5.45;2.13;;;;;;;;;;4942949;28;20051;-77
2021/09/25 11:28:52;;;;;;;6.53;2.13;;;;;;;;;;4952474;28;20032;-77
2021/09/25 11:31:18;;;;;;;11.45;3.35;;;;;;;;;;4950525;29;20102;-77
2021/09/25 11:33:44;;;;;;;13.00;2.90;;;;;;;;;;4950858;28;20117;-78
2021/09/25 11:36:11;;;;;;;11.77;2.35;;;;;;;;;;4941543;28;20382;-78
2021/09/25 11:38:44;;;;;;;6.88;2.22;;;;;;;;;;4944788;29;20046;-78
2021/09/25 11:41:13;;;;;;;4.40;2.20;;;;;;;;;;4953158;28;20131;-78
2021/09/25 11:43:39;;;;;;;3.85;1.85;;;;;;;;;;4950601;28;20122;-79
2021/09/25 11:46:06;;;;;;;11.10;3.00;;;;;;;;;;4948221;29;20110;-78
2021/09/25 11:48:34;;;;;;;6.88;2.03;;;;;;;;;;4947311;28;20075;-78
2021/09/25 11:51:02;;;;;;;8.88;2.25;;;;;;;;;;4947260;28;20548;-79
2021/09/25 11:53:31;;;;;;;5.93;2.00;;;;;;;;;;4941776;28;20535;-79
2021/09/25 11:55:57;;;;;;;5.13;2.53;;;;;;;;;;4942859;28;20041;-79
2021/09/25 11:58:24;;;;;;;6.40;1.92;;;;;;;;;;4938170;29;20067;-78
2021/09/25 12:01:00;;;;;;;6.03;2.20;;;;;;;;;;4943457;29;20043;-78
2021/09/25 12:03:28;;;;;;;6.32;2.17;;;;;;;;;;4942576;29;20044;-78
2021/09/25 12:05:55;;;;;;;8.02;1.90;;;;;;;;;;4943214;28;20031;-78
2021/09/25 12:08:23;;;;;;;14.85;3.97;;;;;;;;;;4943404;29;20035;-78
2021/09/25 12:10:51;;;;;;;7.50;2.28;;;;;;;;;;4937409;29;20047;-79
2021/09/25 12:13:25;;;;;;;6.18;1.85;;;;;;;;;;4928442;29;20044;-78
2021/09/25 12:15:52;;;;;;;11.82;2.63;;;;;;;;;;4926336;29;20126;-78
2021/09/25 12:18:18;;;;;;;14.57;2.35;;;;;;;;;;4932061;29;20036;-78
2021/09/25 12:20:49;;;;;;;7.97;2.10;;;;;;;;;;4929481;29;20079;-78
2021/09/25 12:23:18;;;;;;;9.20;2.65;;;;;;;;;;4927781;29;20028;-78
2021/09/25 12:25:45;;;;;;;6.00;1.95;;;;;;;;;;4927980;29;20034;-78
2021/09/25 12:28:23;;;;;;;6.38;2.30;;;;;;;;;;4925972;29;20044;-78
2021/09/25 12:30:49;;;;;;;12.05;2.35;;;;;;;;;;4919433;29;20028;-78
2021/09/25 12:33:17;;;;;;;18.67;3.20;;;;;;;;;;4922879;29;20039;-76
2021/09/25 12:35:53;;;;;;;8.52;2.25;;;;;;;;;;4921201;29;20113;-77
2021/09/25 12:38:20;;;;;;;8.73;2.65;;;;;;;;;;4926503;29;20115;-77
2021/09/25 12:40:46;;;;;;;6.95;2.17;;;;;;;;;;4922094;29;20035;-76
2021/09/25 12:43:12;;;;;;;11.95;2.85;;;;;;;;;;4922367;29;20032;-77
2021/09/25 12:45:38;;;;;;;7.75;2.55;;;;;;;;;;4926728;29;20035;-76
2021/09/25 12:48:14;;;;;;;4.80;2.50;;;;;;;;;;4927479;29;20463;-77
2021/09/25 12:50:48;;;;;;;7.07;2.40;;;;;;;;;;4923748;29;20030;-77
2021/09/25 12:53:17;;;;;;;7.65;2.25;;;;;;;;;;4920873;29;20059;-77
2021/09/25 12:55:43;;;;;;;3.88;1.95;;;;;;;;;;4919174;29;20130;-76
2021/09/25 12:58:09;;;;;;;7.90;2.17;;;;;;;;;;4927348;29;20028;-77
2021/09/25 13:00:36;;;;;;;9.55;2.58;;;;;;;;;;4926246;29;20040;-76
2021/09/25 13:03:02;;;;;;;10.43;2.72;;;;;;;;;;4927543;29;20040;-77
2021/09/25 13:05:29;;;;;;;6.32;2.50;;;;;;;;;;4922683;29;20040;-76
2021/09/25 13:07:57;;;;;;;4.82;2.30;;;;;;;;;;4925120;29;20155;-76
2021/09/25 13:10:26;;;;;;;8.18;2.90;;;;;;;;;;4919148;29;20122;-77
2021/09/25 13:12:53;;;;;;;6.15;2.47;;;;;;;;;;4943793;28;20387;-77
2021/09/25 13:15:23;;;;;;;10.75;2.78;;;;;;;;;;4944632;29;20363;-77
2021/09/25 13:17:52;;;;;;;7.57;2.40;;;;;;;;;;4942125;29;20035;-77
2021/09/25 13:20:20;;;;;;;7.72;1.90;;;;;;;;;;4946181;28;20062;-77
2021/09/25 13:22:48;;;;;;;5.70;2.17;;;;;;;;;;4950414;28;20035;-76
2021/09/25 13:25:14;;;;;;;5.80;2.35;;;;;;;;;;4947702;29;20059;-77
2021/09/25 13:27:40;;;;;;;8.45;2.50;;;;;;;;;;4947184;29;20493;-76
2021/09/25 13:30:07;;;;;;;9.95;2.50;;;;;;;;;;4946799;28;20036;-76
2021/09/25 13:32:33;;;;;;;9.35;2.60;;;;;;;;;;4944687;28;20039;-77
2021/09/25 13:34:59;;;;;;;9.73;2.42;;;;;;;;;;4947570;28;20561;-77
2021/09/25 13:37:26;;;;;;;10.20;2.55;;;;;;;;;;4950698;28;20676;-76
2021/09/25 13:39:52;;;;;;;10.18;2.92;;;;;;;;;;4947030;29;20099;-77
2021/09/25 13:42:18;;;;;;;7.03;2.15;;;;;;;;;;4950486;28;20478;-77
2021/09/25 13:44:44;;;;;;;9.73;2.65;;;;;;;;;;4942524;29;20087;-76
2021/09/25 13:47:10;;;;;;;5.57;2.10;;;;;;;;;;4945084;28;20083;-77
2021/09/25 13:49:37;;;;;;;7.50;2.60;;;;;;;;;;4952319;28;20072;-77
2021/09/25 13:52:04;;;;;;;6.50;2.25;;;;;;;;;;4942690;28;20047;-76
2021/09/25 13:54:30;;;;;;;8.63;2.20;;;;;;;;;;4940378;29;20035;-77
2021/09/25 13:56:56;;;;;;;5.90;2.38;;;;;;;;;;4940430;28;20054;-76
2021/09/25 13:59:22;;;;;;;10.20;2.50;;;;;;;;;;4944840;29;20415;-77
2021/09/25 14:01:48;;;;;;;8.57;2.92;;;;;;;;;;4937426;28;20036;-77
2021/09/25 14:04:14;;;;;;;9.07;2.60;;;;;;;;;;4951808;28;20039;-76
2021/09/25 14:06:40;;;;;;;7.75;2.17;;;;;;;;;;4952424;28;20043;-76
2021/09/25 14:09:06;;;;;;;6.88;2.50;;;;;;;;;;4949439;29;20046;-77
2021/09/25 14:11:32;;;;;;;6.80;2.70;;;;;;;;;;4947667;29;20051;-77
2021/09/25 14:13:58;;;;;;;8.27;2.38;;;;;;;;;;4948560;29;20039;-77
2021/09/25 14:16:24;;;;;;;6.07;2.50;;;;;;;;;;4944368;28;20173;-77
2021/09/25 14:18:52;;;;;;;8.65;2.60;;;;;;;;;;4947418;28;20091;-77
2021/09/25 14:21:18;;;;;;;6.82;2.78;;;;;;;;;;4941073;28;20039;-76
2021/09/25 14:23:45;;;;;;;8.40;2.30;;;;;;;;;;4952966;28;20102;-77
2021/09/25 14:26:11;;;;;;;7.03;2.78;;;;;;;;;;4941109;28;20040;-77
2021/09/25 14:28:38;;;;;;;9.02;2.45;;;;;;;;;;4948202;29;20039;-76
2021/09/25 14:31:04;;;;;;;9.02;2.75;;;;;;;;;;4944895;28;20031;-77
2021/09/25 14:33:30;;;;;;;5.57;2.40;;;;;;;;;;4940335;28;20139;-76
2021/09/25 14:35:57;;;;;;;9.95;2.80;;;;;;;;;;4945080;28;20046;-77
2021/09/25 14:38:23;;;;;;;7.35;2.78;;;;;;;;;;4941581;29;20398;-76
2021/09/25 14:40:52;;;;;;;9.77;2.90;;;;;;;;;;4943043;28;20031;-76